This is the latest recevied weather packets stored in our database for station/object JQ1YUX-13. If no packets are shown the sender has not sent any weather packets the latest 10 day(s).
| Time | Temp. | Humidity | Pressure | Rain* | Wind** | Luminosity | Snow |
|---|---|---|---|---|---|---|---|
| 1777640285 | 17.78° C | 75% | 994.1 hPa | 0 mm | - | - | - |
| 1777639386 | 17.78° C | 75% | 993.6 hPa | 0 mm | - | - | - |
| 1777638484 | 17.78° C | 76% | 993.8 hPa | 0 mm | - | - | - |
| 1777637584 | 17.78° C | 77% | 993.4 hPa | 0 mm | - | - | - |
| 1777636685 | 17.78° C | 78% | 993.5 hPa | 0 mm | - | - | - |
| 1777635785 | 17.78° C | 77% | 993.3 hPa | 0 mm | - | - | - |
| 1777634884 | 18.33° C | 76% | 992.9 hPa | 0 mm | - | - | - |
| 1777633986 | 18.33° C | 74% | 992.2 hPa | 0 mm | - | - | - |
| 1777633084 | 18.89° C | 70% | 991.6 hPa | 0 mm | - | - | - |
| 1777632186 | 19.44° C | 65% | 990.9 hPa | 0 mm | - | - | - |
| 1777631285 | 18.89° C | 67% | 990.7 hPa | 0 mm | - | - | - |
| 1777630723 | 19.44° C | 68% | 990.6 hPa | 0 mm | - | - | - |
| 1777630385 | 19.44° C | 67% | 990.9 hPa | 0 mm | - | - | - |
| 1777629484 | 20° C | 71% | 991 hPa | 0 mm | - | - | - |
| 1777628585 | 20° C | 77% | 991.2 hPa | 0 mm | - | - | - |
| 1777627686 | 20.56° C | 79% | 991.1 hPa | 0 mm | - | - | - |
| 1777626785 | 20.56° C | 80% | 991.2 hPa | 0 mm | - | - | - |
| 1777625885 | 21.11° C | 82% | 991.2 hPa | 0 mm | - | - | - |
| 1777624986 | 21.11° C | 83% | 991.5 hPa | 0 mm | - | - | - |
| 1777624084 | 21.67° C | 84% | 991.7 hPa | 0 mm | - | - | - |
| 1777623185 | 21.67° C | 84% | 992 hPa | 0 mm | - | - | - |
| 1777622286 | 22.22° C | 84% | 992.2 hPa | 0 mm | - | - | - |
| 1777621385 | 22.22° C | 84% | 992.4 hPa | 0.25 mm | - | - | - |
| 1777620485 | 21.67° C | 85% | 993.1 hPa | 0.25 mm | - | - | - |
| 1777619923 | 21.67° C | 86% | 993.3 hPa | 0.25 mm | - | - | - |
* Rain latest hour (hover to see other rain measurements)
** Current wind speed in m/s (hover to see current wind gust speed)